sensor_id;sensor_type;location;lat;lon;timestamp;P1;durP1;ratioP1;P2;durP2;ratioP2
51738;SDS011;37815;52.692;6.226;2022-10-16T00:03:16;3.97;;;1.50;;
51738;SDS011;37815;52.692;6.226;2022-10-16T00:08:17;2.85;;;1.20;;
51738;SDS011;37815;52.692;6.226;2022-10-16T00:13:17;2.63;;;1.30;;
51738;SDS011;37815;52.692;6.226;2022-10-16T00:18:20;3.67;;;1.08;;
51738;SDS011;37815;52.692;6.226;2022-10-16T00:23:21;3.78;;;1.60;;
51738;SDS011;37815;52.692;6.226;2022-10-16T00:28:22;2.47;;;1.45;;
51738;SDS011;37815;52.692;6.226;2022-10-16T00:33:23;2.35;;;1.23;;
51738;SDS011;37815;52.692;6.226;2022-10-16T00:38:24;2.47;;;1.40;;
51738;SDS011;37815;52.692;6.226;2022-10-16T00:49:03;3.17;;;1.58;;
51738;SDS011;37815;52.692;6.226;2022-10-16T00:54:29;1.88;;;1.17;;
51738;SDS011;37815;52.692;6.226;2022-10-16T00:59:38;1.95;;;1.25;;
51738;SDS011;37815;52.692;6.226;2022-10-16T01:04:44;1.90;;;1.10;;
51738;SDS011;37815;52.692;6.226;2022-10-16T01:15:24;2.22;;;1.30;;
51738;SDS011;37815;52.692;6.226;2022-10-16T01:20:45;1.40;;;1.00;;
51738;SDS011;37815;52.692;6.226;2022-10-16T01:30:58;1.85;;;1.10;;
51738;SDS011;37815;52.692;6.226;2022-10-16T01:36:02;2.92;;;1.33;;
51738;SDS011;37815;52.692;6.226;2022-10-16T01:41:12;2.83;;;1.15;;
51738;SDS011;37815;52.692;6.226;2022-10-16T01:46:18;1.75;;;0.90;;
51738;SDS011;37815;52.692;6.226;2022-10-16T01:51:21;1.85;;;1.30;;
51738;SDS011;37815;52.692;6.226;2022-10-16T01:56:23;1.38;;;1.10;;
51738;SDS011;37815;52.692;6.226;2022-10-16T02:01:25;3.63;;;1.50;;
51738;SDS011;37815;52.692;6.226;2022-10-16T02:06:28;2.33;;;1.20;;
51738;SDS011;37815;52.692;6.226;2022-10-16T02:11:29;2.22;;;1.20;;
51738;SDS011;37815;52.692;6.226;2022-10-16T02:16:34;2.92;;;1.20;;
51738;SDS011;37815;52.692;6.226;2022-10-16T02:27:10;3.72;;;1.23;;
51738;SDS011;37815;52.692;6.226;2022-10-16T02:32:21;2.65;;;1.38;;
51738;SDS011;37815;52.692;6.226;2022-10-16T02:37:24;1.40;;;1.20;;
51738;SDS011;37815;52.692;6.226;2022-10-16T02:42:33;2.55;;;1.42;;
51738;SDS011;37815;52.692;6.226;2022-10-16T02:47:35;2.97;;;1.33;;
51738;SDS011;37815;52.692;6.226;2022-10-16T02:52:36;2.47;;;1.38;;
51738;SDS011;37815;52.692;6.226;2022-10-16T02:57:37;2.38;;;1.20;;
51738;SDS011;37815;52.692;6.226;2022-10-16T03:02:40;2.00;;;1.20;;
51738;SDS011;37815;52.692;6.226;2022-10-16T03:07:41;1.95;;;1.00;;
51738;SDS011;37815;52.692;6.226;2022-10-16T03:12:42;2.20;;;1.10;;
51738;SDS011;37815;52.692;6.226;2022-10-16T03:17:42;2.63;;;1.10;;
51738;SDS011;37815;52.692;6.226;2022-10-16T03:22:43;3.28;;;1.20;;
51738;SDS011;37815;52.692;6.226;2022-10-16T03:27:44;2.10;;;1.20;;
51738;SDS011;37815;52.692;6.226;2022-10-16T03:32:44;1.85;;;0.98;;
51738;SDS011;37815;52.692;6.226;2022-10-16T03:37:45;2.45;;;1.10;;
51738;SDS011;37815;52.692;6.226;2022-10-16T03:42:46;1.73;;;1.23;;
51738;SDS011;37815;52.692;6.226;2022-10-16T03:47:46;2.20;;;1.00;;
51738;SDS011;37815;52.692;6.226;2022-10-16T03:52:47;1.30;;;1.10;;
51738;SDS011;37815;52.692;6.226;2022-10-16T03:57:48;1.02;;;0.93;;
51738;SDS011;37815;52.692;6.226;2022-10-16T04:02:49;1.05;;;0.82;;
51738;SDS011;37815;52.692;6.226;2022-10-16T04:07:49;2.42;;;1.10;;
51738;SDS011;37815;52.692;6.226;2022-10-16T04:12:50;2.10;;;1.15;;
51738;SDS011;37815;52.692;6.226;2022-10-16T04:17:51;2.22;;;1.17;;
51738;SDS011;37815;52.692;6.226;2022-10-16T04:22:52;1.73;;;1.20;;
51738;SDS011;37815;52.692;6.226;2022-10-16T04:27:53;2.35;;;1.20;;
51738;SDS011;37815;52.692;6.226;2022-10-16T04:32:54;3.38;;;1.25;;
51738;SDS011;37815;52.692;6.226;2022-10-16T04:37:56;2.58;;;1.00;;
51738;SDS011;37815;52.692;6.226;2022-10-16T04:42:58;2.35;;;1.50;;
51738;SDS011;37815;52.692;6.226;2022-10-16T04:47:59;1.83;;;1.02;;
51738;SDS011;37815;52.692;6.226;2022-10-16T04:53:00;1.85;;;1.10;;
51738;SDS011;37815;52.692;6.226;2022-10-16T04:58:01;2.00;;;1.17;;
51738;SDS011;37815;52.692;6.226;2022-10-16T05:03:01;2.22;;;1.17;;
51738;SDS011;37815;52.692;6.226;2022-10-16T05:08:05;2.17;;;1.08;;
51738;SDS011;37815;52.692;6.226;2022-10-16T05:13:06;1.20;;;1.10;;
51738;SDS011;37815;52.692;6.226;2022-10-16T05:18:08;1.75;;;1.50;;
51738;SDS011;37815;52.692;6.226;2022-10-16T05:23:09;1.90;;;1.17;;
51738;SDS011;37815;52.692;6.226;2022-10-16T05:28:10;2.55;;;1.10;;
51738;SDS011;37815;52.692;6.226;2022-10-16T05:33:11;1.75;;;1.10;;
51738;SDS011;37815;52.692;6.226;2022-10-16T05:38:12;1.83;;;1.08;;
51738;SDS011;37815;52.692;6.226;2022-10-16T05:43:13;1.77;;;1.30;;
51738;SDS011;37815;52.692;6.226;2022-10-16T05:48:13;1.58;;;1.10;;
51738;SDS011;37815;52.692;6.226;2022-10-16T05:53:14;2.60;;;1.27;;
51738;SDS011;37815;52.692;6.226;2022-10-16T05:58:15;1.75;;;1.15;;
51738;SDS011;37815;52.692;6.226;2022-10-16T06:03:15;1.23;;;1.05;;
51738;SDS011;37815;52.692;6.226;2022-10-16T06:08:16;2.22;;;1.30;;
51738;SDS011;37815;52.692;6.226;2022-10-16T06:13:18;1.50;;;1.20;;
51738;SDS011;37815;52.692;6.226;2022-10-16T06:18:19;2.03;;;1.25;;
51738;SDS011;37815;52.692;6.226;2022-10-16T06:23:20;3.30;;;1.23;;
51738;SDS011;37815;52.692;6.226;2022-10-16T06:28:20;2.13;;;1.00;;
51738;SDS011;37815;52.692;6.226;2022-10-16T06:33:21;2.63;;;1.30;;
51738;SDS011;37815;52.692;6.226;2022-10-16T06:38:22;2.15;;;1.10;;
51738;SDS011;37815;52.692;6.226;2022-10-16T06:43:23;1.40;;;1.23;;
51738;SDS011;37815;52.692;6.226;2022-10-16T06:48:24;3.25;;;1.33;;
51738;SDS011;37815;52.692;6.226;2022-10-16T06:53:26;1.63;;;1.10;;
51738;SDS011;37815;52.692;6.226;2022-10-16T06:58:28;2.30;;;1.05;;
51738;SDS011;37815;52.692;6.226;2022-10-16T07:03:28;1.98;;;0.98;;
51738;SDS011;37815;52.692;6.226;2022-10-16T07:08:30;2.25;;;1.00;;
51738;SDS011;37815;52.692;6.226;2022-10-16T07:13:33;2.25;;;1.10;;
51738;SDS011;37815;52.692;6.226;2022-10-16T07:18:34;1.75;;;1.10;;
51738;SDS011;37815;52.692;6.226;2022-10-16T07:23:36;2.97;;;1.00;;
51738;SDS011;37815;52.692;6.226;2022-10-16T07:28:37;1.92;;;1.00;;
51738;SDS011;37815;52.692;6.226;2022-10-16T07:33:42;2.60;;;1.10;;
51738;SDS011;37815;52.692;6.226;2022-10-16T07:38:45;1.23;;;1.00;;
51738;SDS011;37815;52.692;6.226;2022-10-16T07:43:50;1.35;;;0.90;;
51738;SDS011;37815;52.692;6.226;2022-10-16T07:48:52;1.77;;;0.90;;
51738;SDS011;37815;52.692;6.226;2022-10-16T07:53:53;1.48;;;0.90;;
51738;SDS011;37815;52.692;6.226;2022-10-16T07:58:54;3.25;;;0.82;;
51738;SDS011;37815;52.692;6.226;2022-10-16T08:03:56;2.38;;;0.82;;
51738;SDS011;37815;52.692;6.226;2022-10-16T08:08:57;0.80;;;0.60;;
51738;SDS011;37815;52.692;6.226;2022-10-16T08:14:00;1.63;;;1.02;;
51738;SDS011;37815;52.692;6.226;2022-10-16T08:19:01;1.45;;;1.08;;
51738;SDS011;37815;52.692;6.226;2022-10-16T08:24:02;3.63;;;0.82;;
51738;SDS011;37815;52.692;6.226;2022-10-16T08:29:02;0.98;;;0.65;;
51738;SDS011;37815;52.692;6.226;2022-10-16T08:34:03;3.17;;;1.05;;
51738;SDS011;37815;52.692;6.226;2022-10-16T08:39:04;3.53;;;1.10;;
51738;SDS011;37815;52.692;6.226;2022-10-16T08:44:27;1.25;;;0.90;;
51738;SDS011;37815;52.692;6.226;2022-10-16T08:49:29;1.50;;;0.80;;
51738;SDS011;37815;52.692;6.226;2022-10-16T08:54:33;1.40;;;1.13;;
51738;SDS011;37815;52.692;6.226;2022-10-16T08:59:40;2.95;;;0.98;;
51738;SDS011;37815;52.692;6.226;2022-10-16T09:09:59;2.17;;;0.90;;
51738;SDS011;37815;52.692;6.226;2022-10-16T09:20:35;2.60;;;0.93;;
51738;SDS011;37815;52.692;6.226;2022-10-16T09:25:37;2.33;;;0.90;;
51738;SDS011;37815;52.692;6.226;2022-10-16T09:30:41;4.50;;;1.00;;
51738;SDS011;37815;52.692;6.226;2022-10-16T09:35:43;4.03;;;1.00;;
51738;SDS011;37815;52.692;6.226;2022-10-16T09:40:45;3.10;;;0.98;;
51738;SDS011;37815;52.692;6.226;2022-10-16T09:46:08;1.65;;;0.88;;
51738;SDS011;37815;52.692;6.226;2022-10-16T09:56:25;4.35;;;1.10;;
51738;SDS011;37815;52.692;6.226;2022-10-16T10:01:37;3.97;;;1.27;;
51738;SDS011;37815;52.692;6.226;2022-10-16T10:06:50;3.25;;;0.93;;
51738;SDS011;37815;52.692;6.226;2022-10-16T10:11:56;3.58;;;1.10;;
51738;SDS011;37815;52.692;6.226;2022-10-16T10:17:44;4.95;;;0.95;;
51738;SDS011;37815;52.692;6.226;2022-10-16T10:22:27;2.65;;;0.90;;
51738;SDS011;37815;52.692;6.226;2022-10-16T11:10:03;2.75;;;1.10;;
51738;SDS011;37815;52.692;6.226;2022-10-16T11:15:21;3.85;;;1.33;;
51738;SDS011;37815;52.692;6.226;2022-10-16T11:21:13;5.10;;;1.75;;
51738;SDS011;37815;52.692;6.226;2022-10-16T11:26:09;3.15;;;1.10;;
51738;SDS011;37815;52.692;6.226;2022-10-16T11:36:29;4.68;;;1.23;;
51738;SDS011;37815;52.692;6.226;2022-10-16T11:41:47;4.30;;;1.10;;
51738;SDS011;37815;52.692;6.226;2022-10-16T11:46:52;2.28;;;1.10;;
51738;SDS011;37815;52.692;6.226;2022-10-16T11:52:22;7.72;;;1.55;;
51738;SDS011;37815;52.692;6.226;2022-10-16T11:57:39;3.25;;;1.10;;
51738;SDS011;37815;52.692;6.226;2022-10-16T12:08:08;5.53;;;1.40;;
51738;SDS011;37815;52.692;6.226;2022-10-16T12:18:32;5.93;;;1.13;;
51738;SDS011;37815;52.692;6.226;2022-10-16T12:23:36;3.03;;;1.10;;
51738;SDS011;37815;52.692;6.226;2022-10-16T12:28:38;1.95;;;0.90;;
51738;SDS011;37815;52.692;6.226;2022-10-16T12:33:40;3.38;;;1.10;;
51738;SDS011;37815;52.692;6.226;2022-10-16T12:38:52;6.00;;;1.25;;
51738;SDS011;37815;52.692;6.226;2022-10-16T12:43:53;4.25;;;1.13;;
51738;SDS011;37815;52.692;6.226;2022-10-16T12:49:04;4.55;;;1.40;;
51738;SDS011;37815;52.692;6.226;2022-10-16T13:30:59;3.78;;;1.38;;
51738;SDS011;37815;52.692;6.226;2022-10-16T13:36:01;2.75;;;1.00;;
51738;SDS011;37815;52.692;6.226;2022-10-16T13:41:12;4.43;;;1.13;;
51738;SDS011;37815;52.692;6.226;2022-10-16T13:51:19;3.92;;;1.40;;
51738;SDS011;37815;52.692;6.226;2022-10-16T13:56:21;4.95;;;1.58;;
51738;SDS011;37815;52.692;6.226;2022-10-16T14:01:24;4.32;;;1.02;;
51738;SDS011;37815;52.692;6.226;2022-10-16T14:06:28;4.85;;;1.20;;
51738;SDS011;37815;52.692;6.226;2022-10-16T14:11:28;3.47;;;1.25;;
51738;SDS011;37815;52.692;6.226;2022-10-16T14:16:30;4.65;;;1.27;;
51738;SDS011;37815;52.692;6.226;2022-10-16T14:21:32;2.65;;;1.00;;
51738;SDS011;37815;52.692;6.226;2022-10-16T14:26:40;3.78;;;1.25;;
51738;SDS011;37815;52.692;6.226;2022-10-16T14:31:42;3.05;;;1.23;;
51738;SDS011;37815;52.692;6.226;2022-10-16T14:36:56;4.22;;;1.83;;
51738;SDS011;37815;52.692;6.226;2022-10-16T14:42:16;4.90;;;1.63;;
51738;SDS011;37815;52.692;6.226;2022-10-16T14:47:20;2.65;;;1.23;;
51738;SDS011;37815;52.692;6.226;2022-10-16T14:52:24;3.15;;;1.35;;
51738;SDS011;37815;52.692;6.226;2022-10-16T14:57:26;4.88;;;1.60;;
51738;SDS011;37815;52.692;6.226;2022-10-16T15:02:32;2.65;;;1.20;;
51738;SDS011;37815;52.692;6.226;2022-10-16T15:07:34;3.10;;;1.25;;
51738;SDS011;37815;52.692;6.226;2022-10-16T15:12:35;3.33;;;1.25;;
51738;SDS011;37815;52.692;6.226;2022-10-16T15:17:36;3.33;;;1.30;;
51738;SDS011;37815;52.692;6.226;2022-10-16T15:22:36;5.82;;;1.38;;
51738;SDS011;37815;52.692;6.226;2022-10-16T15:27:37;4.60;;;1.38;;
51738;SDS011;37815;52.692;6.226;2022-10-16T15:32:40;3.08;;;1.25;;
51738;SDS011;37815;52.692;6.226;2022-10-16T15:37:40;2.80;;;1.20;;
51738;SDS011;37815;52.692;6.226;2022-10-16T15:42:41;2.63;;;1.13;;
51738;SDS011;37815;52.692;6.226;2022-10-16T15:47:42;3.63;;;1.45;;
51738;SDS011;37815;52.692;6.226;2022-10-16T15:52:43;4.45;;;1.40;;
51738;SDS011;37815;52.692;6.226;2022-10-16T15:57:44;1.52;;;1.10;;
51738;SDS011;37815;52.692;6.226;2022-10-16T16:02:49;2.75;;;1.40;;
51738;SDS011;37815;52.692;6.226;2022-10-16T16:07:51;3.65;;;1.25;;
51738;SDS011;37815;52.692;6.226;2022-10-16T16:12:52;3.45;;;1.30;;
51738;SDS011;37815;52.692;6.226;2022-10-16T16:17:55;4.45;;;1.50;;
51738;SDS011;37815;52.692;6.226;2022-10-16T16:22:56;3.45;;;1.45;;
51738;SDS011;37815;52.692;6.226;2022-10-16T16:27:57;4.60;;;1.50;;
51738;SDS011;37815;52.692;6.226;2022-10-16T16:32:58;4.10;;;1.42;;
51738;SDS011;37815;52.692;6.226;2022-10-16T16:37:59;4.60;;;1.85;;
51738;SDS011;37815;52.692;6.226;2022-10-16T16:42:59;4.95;;;1.20;;
51738;SDS011;37815;52.692;6.226;2022-10-16T16:48:00;2.90;;;1.77;;
51738;SDS011;37815;52.692;6.226;2022-10-16T16:53:01;4.78;;;1.25;;
51738;SDS011;37815;52.692;6.226;2022-10-16T16:58:02;3.40;;;1.65;;
51738;SDS011;37815;52.692;6.226;2022-10-16T17:03:03;5.68;;;2.35;;
51738;SDS011;37815;52.692;6.226;2022-10-16T17:08:07;5.30;;;2.03;;
51738;SDS011;37815;52.692;6.226;2022-10-16T17:13:08;4.22;;;1.60;;
51738;SDS011;37815;52.692;6.226;2022-10-16T17:18:09;5.60;;;1.80;;
51738;SDS011;37815;52.692;6.226;2022-10-16T17:23:10;5.88;;;1.52;;
51738;SDS011;37815;52.692;6.226;2022-10-16T17:28:11;1.63;;;1.38;;
51738;SDS011;37815;52.692;6.226;2022-10-16T17:33:13;4.78;;;1.92;;
51738;SDS011;37815;52.692;6.226;2022-10-16T17:38:14;5.82;;;1.55;;
51738;SDS011;37815;52.692;6.226;2022-10-16T17:43:15;3.67;;;1.35;;
51738;SDS011;37815;52.692;6.226;2022-10-16T17:48:16;6.22;;;2.25;;
51738;SDS011;37815;52.692;6.226;2022-10-16T17:53:17;2.53;;;1.40;;
51738;SDS011;37815;52.692;6.226;2022-10-16T17:58:17;5.32;;;1.60;;
51738;SDS011;37815;52.692;6.226;2022-10-16T18:03:18;7.07;;;2.05;;
51738;SDS011;37815;52.692;6.226;2022-10-16T18:08:19;3.08;;;1.83;;
51738;SDS011;37815;52.692;6.226;2022-10-16T18:13:19;4.45;;;1.88;;
51738;SDS011;37815;52.692;6.226;2022-10-16T18:18:20;3.50;;;1.80;;
51738;SDS011;37815;52.692;6.226;2022-10-16T18:23:21;4.15;;;1.83;;
51738;SDS011;37815;52.692;6.226;2022-10-16T18:28:22;4.53;;;2.33;;
51738;SDS011;37815;52.692;6.226;2022-10-16T18:33:23;4.15;;;2.15;;
51738;SDS011;37815;52.692;6.226;2022-10-16T18:38:24;4.13;;;1.90;;
51738;SDS011;37815;52.692;6.226;2022-10-16T18:43:25;4.45;;;1.85;;
51738;SDS011;37815;52.692;6.226;2022-10-16T18:48:26;5.45;;;2.00;;
51738;SDS011;37815;52.692;6.226;2022-10-16T18:53:29;5.78;;;2.22;;
51738;SDS011;37815;52.692;6.226;2022-10-16T18:58:30;7.05;;;1.90;;
51738;SDS011;37815;52.692;6.226;2022-10-16T19:03:31;6.47;;;1.70;;
51738;SDS011;37815;52.692;6.226;2022-10-16T19:08:32;4.43;;;2.08;;
51738;SDS011;37815;52.692;6.226;2022-10-16T19:13:33;4.68;;;2.10;;
51738;SDS011;37815;52.692;6.226;2022-10-16T19:18:34;4.03;;;1.92;;
51738;SDS011;37815;52.692;6.226;2022-10-16T19:23:37;2.40;;;1.75;;
51738;SDS011;37815;52.692;6.226;2022-10-16T19:28:39;4.43;;;1.80;;
51738;SDS011;37815;52.692;6.226;2022-10-16T19:33:40;4.65;;;2.10;;
51738;SDS011;37815;52.692;6.226;2022-10-16T19:38:42;4.78;;;2.08;;
51738;SDS011;37815;52.692;6.226;2022-10-16T19:43:43;6.38;;;2.20;;
51738;SDS011;37815;52.692;6.226;2022-10-16T19:48:45;4.90;;;2.00;;
51738;SDS011;37815;52.692;6.226;2022-10-16T19:53:47;3.35;;;2.20;;
51738;SDS011;37815;52.692;6.226;2022-10-16T19:58:48;5.78;;;1.75;;
51738;SDS011;37815;52.692;6.226;2022-10-16T20:03:49;5.07;;;2.05;;
51738;SDS011;37815;52.692;6.226;2022-10-16T20:08:51;4.78;;;2.35;;
51738;SDS011;37815;52.692;6.226;2022-10-16T20:13:52;2.72;;;2.30;;
51738;SDS011;37815;52.692;6.226;2022-10-16T20:18:53;5.70;;;2.22;;
51738;SDS011;37815;52.692;6.226;2022-10-16T20:23:55;6.50;;;2.50;;
51738;SDS011;37815;52.692;6.226;2022-10-16T20:28:56;3.55;;;2.15;;
51738;SDS011;37815;52.692;6.226;2022-10-16T20:33:57;4.32;;;2.22;;
51738;SDS011;37815;52.692;6.226;2022-10-16T20:39:02;4.43;;;2.38;;
51738;SDS011;37815;52.692;6.226;2022-10-16T20:44:04;5.55;;;2.30;;
51738;SDS011;37815;52.692;6.226;2022-10-16T20:49:05;3.67;;;2.17;;
51738;SDS011;37815;52.692;6.226;2022-10-16T20:54:09;4.72;;;2.10;;
51738;SDS011;37815;52.692;6.226;2022-10-16T20:59:11;3.50;;;2.03;;
51738;SDS011;37815;52.692;6.226;2022-10-16T21:04:12;4.93;;;2.40;;
51738;SDS011;37815;52.692;6.226;2022-10-16T21:09:12;8.05;;;2.75;;
51738;SDS011;37815;52.692;6.226;2022-10-16T21:14:13;6.63;;;2.60;;
51738;SDS011;37815;52.692;6.226;2022-10-16T21:19:14;2.72;;;2.22;;
51738;SDS011;37815;52.692;6.226;2022-10-16T21:24:15;3.80;;;2.42;;
51738;SDS011;37815;52.692;6.226;2022-10-16T21:29:16;4.60;;;2.42;;
51738;SDS011;37815;52.692;6.226;2022-10-16T21:34:18;4.38;;;2.80;;
51738;SDS011;37815;52.692;6.226;2022-10-16T21:39:19;3.88;;;2.80;;
51738;SDS011;37815;52.692;6.226;2022-10-16T21:44:20;3.40;;;2.40;;
51738;SDS011;37815;52.692;6.226;2022-10-16T21:49:21;4.35;;;2.47;;
51738;SDS011;37815;52.692;6.226;2022-10-16T21:54:22;6.53;;;2.55;;
51738;SDS011;37815;52.692;6.226;2022-10-16T21:59:23;3.72;;;2.40;;
51738;SDS011;37815;52.692;6.226;2022-10-16T22:04:23;5.13;;;2.65;;
51738;SDS011;37815;52.692;6.226;2022-10-16T22:09:24;5.47;;;2.83;;
51738;SDS011;37815;52.692;6.226;2022-10-16T22:14:25;4.60;;;2.53;;
51738;SDS011;37815;52.692;6.226;2022-10-16T22:19:25;4.65;;;2.30;;
51738;SDS011;37815;52.692;6.226;2022-10-16T22:24:27;6.47;;;2.53;;
51738;SDS011;37815;52.692;6.226;2022-10-16T22:29:27;3.42;;;2.25;;
51738;SDS011;37815;52.692;6.226;2022-10-16T22:34:28;6.70;;;2.50;;
51738;SDS011;37815;52.692;6.226;2022-10-16T22:39:29;4.35;;;2.30;;
51738;SDS011;37815;52.692;6.226;2022-10-16T22:44:29;5.60;;;2.22;;
51738;SDS011;37815;52.692;6.226;2022-10-16T22:49:30;4.63;;;2.35;;
51738;SDS011;37815;52.692;6.226;2022-10-16T22:54:31;5.97;;;2.25;;
51738;SDS011;37815;52.692;6.226;2022-10-16T22:59:31;4.53;;;2.17;;
51738;SDS011;37815;52.692;6.226;2022-10-16T23:04:32;5.75;;;2.30;;
51738;SDS011;37815;52.692;6.226;2022-10-16T23:09:33;2.92;;;2.00;;
51738;SDS011;37815;52.692;6.226;2022-10-16T23:14:34;3.08;;;2.28;;
51738;SDS011;37815;52.692;6.226;2022-10-16T23:19:34;4.30;;;2.20;;
51738;SDS011;37815;52.692;6.226;2022-10-16T23:24:35;2.92;;;1.92;;
51738;SDS011;37815;52.692;6.226;2022-10-16T23:29:36;4.00;;;1.80;;
51738;SDS011;37815;52.692;6.226;2022-10-16T23:34:37;3.67;;;1.98;;
51738;SDS011;37815;52.692;6.226;2022-10-16T23:39:38;3.67;;;2.22;;
51738;SDS011;37815;52.692;6.226;2022-10-16T23:44:39;3.53;;;1.85;;
51738;SDS011;37815;52.692;6.226;2022-10-16T23:49:39;3.85;;;2.10;;
51738;SDS011;37815;52.692;6.226;2022-10-16T23:54:40;4.22;;;2.05;;
51738;SDS011;37815;52.692;6.226;2022-10-16T23:59:41;3.88;;;1.90;;
